sensor_id;sensor_type;location;lat;lon;timestamp;temperature;humidity
2571;DHT22;1295;51.130;6.732;2024-03-08T00:01:00;9.00;99.90
2571;DHT22;1295;51.130;6.732;2024-03-08T00:03:25;9.10;99.90
2571;DHT22;1295;51.130;6.732;2024-03-08T00:05:51;9.10;99.90
2571;DHT22;1295;51.130;6.732;2024-03-08T00:08:22;9.10;99.90
2571;DHT22;1295;51.130;6.732;2024-03-08T00:10:58;9.00;99.90
2571;DHT22;1295;51.130;6.732;2024-03-08T00:13:24;9.00;99.90
2571;DHT22;1295;51.130;6.732;2024-03-08T00:15:50;9.00;99.90
2571;DHT22;1295;51.130;6.732;2024-03-08T00:18:15;9.00;99.90
2571;DHT22;1295;51.130;6.732;2024-03-08T00:20:41;9.00;99.90
2571;DHT22;1295;51.130;6.732;2024-03-08T00:23:06;9.00;99.90
2571;DHT22;1295;51.130;6.732;2024-03-08T00:25:32;9.00;99.90
2571;DHT22;1295;51.130;6.732;2024-03-08T00:27:58;9.00;99.90
2571;DHT22;1295;51.130;6.732;2024-03-08T00:30:24;8.90;99.90
2571;DHT22;1295;51.130;6.732;2024-03-08T00:32:50;9.00;99.90
2571;DHT22;1295;51.130;6.732;2024-03-08T00:35:15;8.90;99.90
2571;DHT22;1295;51.130;6.732;2024-03-08T00:37:42;8.90;99.90
2571;DHT22;1295;51.130;6.732;2024-03-08T00:40:08;8.90;99.90
2571;DHT22;1295;51.130;6.732;2024-03-08T00:42:36;8.90;99.90
2571;DHT22;1295;51.130;6.732;2024-03-08T00:45:02;8.90;99.90
2571;DHT22;1295;51.130;6.732;2024-03-08T00:47:28;8.90;99.90
2571;DHT22;1295;51.130;6.732;2024-03-08T00:49:53;8.90;99.90
2571;DHT22;1295;51.130;6.732;2024-03-08T00:52:19;8.90;99.90
2571;DHT22;1295;51.130;6.732;2024-03-08T00:54:45;8.80;99.90
2571;DHT22;1295;51.130;6.732;2024-03-08T00:57:11;8.80;99.90
2571;DHT22;1295;51.130;6.732;2024-03-08T00:59:37;8.80;99.90
2571;DHT22;1295;51.130;6.732;2024-03-08T01:02:02;8.80;99.90
2571;DHT22;1295;51.130;6.732;2024-03-08T01:04:27;8.80;99.90
2571;DHT22;1295;51.130;6.732;2024-03-08T01:06:56;8.80;99.90
2571;DHT22;1295;51.130;6.732;2024-03-08T01:09:25;8.80;99.90
2571;DHT22;1295;51.130;6.732;2024-03-08T01:11:51;8.80;99.90
2571;DHT22;1295;51.130;6.732;2024-03-08T01:14:16;8.70;99.90
2571;DHT22;1295;51.130;6.732;2024-03-08T01:16:42;8.70;99.90
2571;DHT22;1295;51.130;6.732;2024-03-08T01:19:08;8.70;99.90
2571;DHT22;1295;51.130;6.732;2024-03-08T01:21:33;8.70;99.90
2571;DHT22;1295;51.130;6.732;2024-03-08T01:23:59;8.70;99.90
2571;DHT22;1295;51.130;6.732;2024-03-08T01:26:24;8.70;99.90
2571;DHT22;1295;51.130;6.732;2024-03-08T01:28:50;8.70;99.90
2571;DHT22;1295;51.130;6.732;2024-03-08T01:31:16;8.60;99.90
2571;DHT22;1295;51.130;6.732;2024-03-08T01:33:42;8.60;99.90
2571;DHT22;1295;51.130;6.732;2024-03-08T01:36:08;8.60;99.90
2571;DHT22;1295;51.130;6.732;2024-03-08T01:38:33;8.60;99.90
2571;DHT22;1295;51.130;6.732;2024-03-08T01:40:59;8.60;99.90
2571;DHT22;1295;51.130;6.732;2024-03-08T01:43:26;8.60;99.90
2571;DHT22;1295;51.130;6.732;2024-03-08T01:45:51;8.60;99.90
2571;DHT22;1295;51.130;6.732;2024-03-08T01:48:17;8.60;99.90
2571;DHT22;1295;51.130;6.732;2024-03-08T01:50:42;8.60;99.90
2571;DHT22;1295;51.130;6.732;2024-03-08T01:53:08;8.50;99.90
2571;DHT22;1295;51.130;6.732;2024-03-08T01:55:33;8.50;99.90
2571;DHT22;1295;51.130;6.732;2024-03-08T01:57:59;8.50;99.90
2571;DHT22;1295;51.130;6.732;2024-03-08T02:00:25;8.50;99.90
2571;DHT22;1295;51.130;6.732;2024-03-08T02:02:50;8.50;99.90
2571;DHT22;1295;51.130;6.732;2024-03-08T02:05:16;8.50;99.90
2571;DHT22;1295;51.130;6.732;2024-03-08T02:07:41;8.50;99.90
2571;DHT22;1295;51.130;6.732;2024-03-08T02:10:08;8.50;99.90
2571;DHT22;1295;51.130;6.732;2024-03-08T02:12:35;8.40;99.90
2571;DHT22;1295;51.130;6.732;2024-03-08T02:15:01;8.40;99.90
2571;DHT22;1295;51.130;6.732;2024-03-08T02:17:27;8.40;99.90
2571;DHT22;1295;51.130;6.732;2024-03-08T02:19:53;8.40;99.90
2571;DHT22;1295;51.130;6.732;2024-03-08T02:22:19;8.40;99.90
2571;DHT22;1295;51.130;6.732;2024-03-08T02:24:46;8.40;99.90
2571;DHT22;1295;51.130;6.732;2024-03-08T02:27:11;8.40;99.90
2571;DHT22;1295;51.130;6.732;2024-03-08T02:29:37;8.40;99.90
2571;DHT22;1295;51.130;6.732;2024-03-08T02:32:03;8.40;99.90
2571;DHT22;1295;51.130;6.732;2024-03-08T02:34:29;8.30;99.90
2571;DHT22;1295;51.130;6.732;2024-03-08T02:36:55;8.30;99.90
2571;DHT22;1295;51.130;6.732;2024-03-08T02:39:20;8.30;99.90
2571;DHT22;1295;51.130;6.732;2024-03-08T02:41:46;8.30;99.90
2571;DHT22;1295;51.130;6.732;2024-03-08T02:44:12;8.30;99.90
2571;DHT22;1295;51.130;6.732;2024-03-08T02:46:37;8.30;99.90
2571;DHT22;1295;51.130;6.732;2024-03-08T02:49:04;8.20;99.90
2571;DHT22;1295;51.130;6.732;2024-03-08T02:51:29;8.20;99.90
2571;DHT22;1295;51.130;6.732;2024-03-08T02:53:55;8.20;99.90
2571;DHT22;1295;51.130;6.732;2024-03-08T02:56:21;8.20;99.90
2571;DHT22;1295;51.130;6.732;2024-03-08T02:58:46;8.20;99.90
2571;DHT22;1295;51.130;6.732;2024-03-08T03:01:13;8.20;99.90
2571;DHT22;1295;51.130;6.732;2024-03-08T03:03:39;8.20;99.90
2571;DHT22;1295;51.130;6.732;2024-03-08T03:06:05;8.10;99.90
2571;DHT22;1295;51.130;6.732;2024-03-08T03:08:31;8.20;99.90
2571;DHT22;1295;51.130;6.732;2024-03-08T03:10:56;8.20;99.90
2571;DHT22;1295;51.130;6.732;2024-03-08T03:13:22;8.20;99.90
2571;DHT22;1295;51.130;6.732;2024-03-08T03:15:48;8.10;99.90
2571;DHT22;1295;51.130;6.732;2024-03-08T03:18:14;8.10;99.90
2571;DHT22;1295;51.130;6.732;2024-03-08T03:20:39;8.10;99.90
2571;DHT22;1295;51.130;6.732;2024-03-08T03:23:06;8.10;99.90
2571;DHT22;1295;51.130;6.732;2024-03-08T03:25:31;8.00;99.90
2571;DHT22;1295;51.130;6.732;2024-03-08T03:27:59;8.00;99.90
2571;DHT22;1295;51.130;6.732;2024-03-08T03:30:25;8.00;99.90
2571;DHT22;1295;51.130;6.732;2024-03-08T03:32:50;8.00;99.90
2571;DHT22;1295;51.130;6.732;2024-03-08T03:35:17;8.00;99.90
2571;DHT22;1295;51.130;6.732;2024-03-08T03:37:42;8.00;99.90
2571;DHT22;1295;51.130;6.732;2024-03-08T03:40:09;8.00;99.90
2571;DHT22;1295;51.130;6.732;2024-03-08T03:42:34;8.00;99.90
2571;DHT22;1295;51.130;6.732;2024-03-08T03:45:00;7.90;99.90
2571;DHT22;1295;51.130;6.732;2024-03-08T03:47:26;7.90;99.90
2571;DHT22;1295;51.130;6.732;2024-03-08T03:49:51;7.90;99.90
2571;DHT22;1295;51.130;6.732;2024-03-08T03:52:17;7.90;99.90
2571;DHT22;1295;51.130;6.732;2024-03-08T03:54:43;7.90;99.90
2571;DHT22;1295;51.130;6.732;2024-03-08T03:57:08;7.90;99.90
2571;DHT22;1295;51.130;6.732;2024-03-08T03:59:34;7.80;99.90
2571;DHT22;1295;51.130;6.732;2024-03-08T04:01:59;7.90;99.90
2571;DHT22;1295;51.130;6.732;2024-03-08T04:04:25;7.90;99.90
2571;DHT22;1295;51.130;6.732;2024-03-08T04:06:51;7.80;99.90
2571;DHT22;1295;51.130;6.732;2024-03-08T04:09:16;7.80;99.90
2571;DHT22;1295;51.130;6.732;2024-03-08T04:11:42;7.80;99.90
2571;DHT22;1295;51.130;6.732;2024-03-08T04:14:08;7.80;99.90
2571;DHT22;1295;51.130;6.732;2024-03-08T04:16:34;7.80;99.90
2571;DHT22;1295;51.130;6.732;2024-03-08T04:19:00;7.80;99.90
2571;DHT22;1295;51.130;6.732;2024-03-08T04:21:25;7.80;99.90
2571;DHT22;1295;51.130;6.732;2024-03-08T04:23:51;7.70;99.90
2571;DHT22;1295;51.130;6.732;2024-03-08T04:26:17;7.80;99.90
2571;DHT22;1295;51.130;6.732;2024-03-08T04:28:42;7.80;99.90
2571;DHT22;1295;51.130;6.732;2024-03-08T04:31:08;7.80;99.90
2571;DHT22;1295;51.130;6.732;2024-03-08T04:33:33;7.70;99.90
2571;DHT22;1295;51.130;6.732;2024-03-08T04:36:00;7.70;99.90
2571;DHT22;1295;51.130;6.732;2024-03-08T04:38:25;7.70;99.90
2571;DHT22;1295;51.130;6.732;2024-03-08T04:40:52;7.70;99.90
2571;DHT22;1295;51.130;6.732;2024-03-08T04:43:23;7.70;99.90
2571;DHT22;1295;51.130;6.732;2024-03-08T04:45:48;7.70;99.90
2571;DHT22;1295;51.130;6.732;2024-03-08T04:48:14;7.60;99.90
2571;DHT22;1295;51.130;6.732;2024-03-08T04:50:40;7.60;99.90
2571;DHT22;1295;51.130;6.732;2024-03-08T04:53:06;7.60;99.90
2571;DHT22;1295;51.130;6.732;2024-03-08T04:55:31;7.60;99.90
2571;DHT22;1295;51.130;6.732;2024-03-08T04:57:57;7.60;99.90
2571;DHT22;1295;51.130;6.732;2024-03-08T05:00:22;7.60;99.90
2571;DHT22;1295;51.130;6.732;2024-03-08T05:02:49;7.60;99.90
2571;DHT22;1295;51.130;6.732;2024-03-08T05:05:14;7.50;99.90
2571;DHT22;1295;51.130;6.732;2024-03-08T05:07:40;7.60;99.90
2571;DHT22;1295;51.130;6.732;2024-03-08T05:10:06;7.60;99.90
2571;DHT22;1295;51.130;6.732;2024-03-08T05:12:33;7.50;99.90
2571;DHT22;1295;51.130;6.732;2024-03-08T05:14:59;7.50;99.90
2571;DHT22;1295;51.130;6.732;2024-03-08T05:17:25;7.50;99.90
2571;DHT22;1295;51.130;6.732;2024-03-08T05:19:51;7.50;99.90
2571;DHT22;1295;51.130;6.732;2024-03-08T05:22:16;7.50;99.90
2571;DHT22;1295;51.130;6.732;2024-03-08T05:24:42;7.50;99.90
2571;DHT22;1295;51.130;6.732;2024-03-08T05:27:07;7.50;99.90
2571;DHT22;1295;51.130;6.732;2024-03-08T05:29:33;7.40;99.90
2571;DHT22;1295;51.130;6.732;2024-03-08T05:31:59;7.40;99.90
2571;DHT22;1295;51.130;6.732;2024-03-08T05:34:24;7.50;99.90
2571;DHT22;1295;51.130;6.732;2024-03-08T05:36:50;7.40;99.90
2571;DHT22;1295;51.130;6.732;2024-03-08T05:39:16;7.30;99.90
2571;DHT22;1295;51.130;6.732;2024-03-08T05:41:41;7.10;99.90
2571;DHT22;1295;51.130;6.732;2024-03-08T05:44:07;7.30;99.90
2571;DHT22;1295;51.130;6.732;2024-03-08T05:46:33;7.30;99.90
2571;DHT22;1295;51.130;6.732;2024-03-08T05:48:58;7.30;99.90
2571;DHT22;1295;51.130;6.732;2024-03-08T05:51:25;7.30;99.90
2571;DHT22;1295;51.130;6.732;2024-03-08T05:53:50;7.30;99.90
2571;DHT22;1295;51.130;6.732;2024-03-08T05:56:16;7.00;99.90
2571;DHT22;1295;51.130;6.732;2024-03-08T05:58:41;7.10;99.90
2571;DHT22;1295;51.130;6.732;2024-03-08T06:01:08;6.90;99.90
2571;DHT22;1295;51.130;6.732;2024-03-08T06:03:34;6.90;99.90
2571;DHT22;1295;51.130;6.732;2024-03-08T06:06:00;7.10;99.90
2571;DHT22;1295;51.130;6.732;2024-03-08T06:08:26;7.00;99.90
2571;DHT22;1295;51.130;6.732;2024-03-08T06:10:52;7.00;99.90
2571;DHT22;1295;51.130;6.732;2024-03-08T06:13:17;7.00;99.90
2571;DHT22;1295;51.130;6.732;2024-03-08T06:15:43;7.00;99.90
2571;DHT22;1295;51.130;6.732;2024-03-08T06:18:08;6.50;99.90
2571;DHT22;1295;51.130;6.732;2024-03-08T06:20:35;6.80;99.90
2571;DHT22;1295;51.130;6.732;2024-03-08T06:23:00;6.80;99.90
2571;DHT22;1295;51.130;6.732;2024-03-08T06:25:26;6.30;99.90
2571;DHT22;1295;51.130;6.732;2024-03-08T06:27:52;5.90;99.90
2571;DHT22;1295;51.130;6.732;2024-03-08T06:30:17;6.80;99.90
2571;DHT22;1295;51.130;6.732;2024-03-08T06:32:44;6.70;99.90
2571;DHT22;1295;51.130;6.732;2024-03-08T06:35:10;6.00;99.90
2571;DHT22;1295;51.130;6.732;2024-03-08T06:37:36;6.00;99.90
2571;DHT22;1295;51.130;6.732;2024-03-08T06:40:02;6.30;99.90
2571;DHT22;1295;51.130;6.732;2024-03-08T06:42:27;6.10;99.90
2571;DHT22;1295;51.130;6.732;2024-03-08T06:44:53;6.50;99.90
2571;DHT22;1295;51.130;6.732;2024-03-08T06:47:18;6.80;99.90
2571;DHT22;1295;51.130;6.732;2024-03-08T06:49:44;6.60;99.90
2571;DHT22;1295;51.130;6.732;2024-03-08T06:52:10;6.70;99.90
2571;DHT22;1295;51.130;6.732;2024-03-08T06:54:35;6.80;99.90
2571;DHT22;1295;51.130;6.732;2024-03-08T06:57:03;6.50;99.90
2571;DHT22;1295;51.130;6.732;2024-03-08T06:59:29;6.40;99.90
2571;DHT22;1295;51.130;6.732;2024-03-08T07:01:55;6.50;99.90
2571;DHT22;1295;51.130;6.732;2024-03-08T07:04:21;6.60;99.90
2571;DHT22;1295;51.130;6.732;2024-03-08T07:06:48;6.60;99.90
2571;DHT22;1295;51.130;6.732;2024-03-08T07:09:14;6.90;99.90
2571;DHT22;1295;51.130;6.732;2024-03-08T07:11:40;6.40;99.90
2571;DHT22;1295;51.130;6.732;2024-03-08T07:14:06;6.40;99.90
2571;DHT22;1295;51.130;6.732;2024-03-08T07:16:32;5.80;99.90
2571;DHT22;1295;51.130;6.732;2024-03-08T07:18:57;6.20;99.90
2571;DHT22;1295;51.130;6.732;2024-03-08T07:21:24;6.90;99.90
2571;DHT22;1295;51.130;6.732;2024-03-08T07:23:49;6.90;99.90
2571;DHT22;1295;51.130;6.732;2024-03-08T07:26:19;7.00;99.90
2571;DHT22;1295;51.130;6.732;2024-03-08T07:28:44;6.70;99.90
2571;DHT22;1295;51.130;6.732;2024-03-08T07:31:10;6.80;99.90
2571;DHT22;1295;51.130;6.732;2024-03-08T07:33:52;6.60;99.90
2571;DHT22;1295;51.130;6.732;2024-03-08T07:36:19;6.80;99.90
2571;DHT22;1295;51.130;6.732;2024-03-08T07:38:45;6.80;99.90
2571;DHT22;1295;51.130;6.732;2024-03-08T07:41:11;6.40;99.90
2571;DHT22;1295;51.130;6.732;2024-03-08T07:43:37;6.80;99.90
2571;DHT22;1295;51.130;6.732;2024-03-08T07:46:03;6.90;99.90
2571;DHT22;1295;51.130;6.732;2024-03-08T07:48:29;6.90;99.90
2571;DHT22;1295;51.130;6.732;2024-03-08T07:50:55;6.80;99.90
2571;DHT22;1295;51.130;6.732;2024-03-08T07:53:20;6.90;99.90
2571;DHT22;1295;51.130;6.732;2024-03-08T07:55:46;6.60;99.90
2571;DHT22;1295;51.130;6.732;2024-03-08T07:58:12;7.00;99.90
2571;DHT22;1295;51.130;6.732;2024-03-08T08:00:37;7.20;99.90
2571;DHT22;1295;51.130;6.732;2024-03-08T08:03:04;7.10;99.90
2571;DHT22;1295;51.130;6.732;2024-03-08T08:05:30;7.10;99.90
2571;DHT22;1295;51.130;6.732;2024-03-08T08:07:55;7.20;99.90
2571;DHT22;1295;51.130;6.732;2024-03-08T08:10:21;7.40;99.90
2571;DHT22;1295;51.130;6.732;2024-03-08T08:12:47;7.50;99.90
2571;DHT22;1295;51.130;6.732;2024-03-08T08:15:12;7.60;99.90
2571;DHT22;1295;51.130;6.732;2024-03-08T08:17:38;7.60;99.90
2571;DHT22;1295;51.130;6.732;2024-03-08T08:20:04;7.70;99.90
2571;DHT22;1295;51.130;6.732;2024-03-08T08:22:30;7.70;99.90
2571;DHT22;1295;51.130;6.732;2024-03-08T08:24:56;7.80;99.90
2571;DHT22;1295;51.130;6.732;2024-03-08T08:27:21;7.90;99.90
2571;DHT22;1295;51.130;6.732;2024-03-08T08:29:47;8.00;99.90
2571;DHT22;1295;51.130;6.732;2024-03-08T08:32:13;7.80;99.90
2571;DHT22;1295;51.130;6.732;2024-03-08T08:34:38;7.90;99.90
2571;DHT22;1295;51.130;6.732;2024-03-08T08:37:04;7.90;99.90
2571;DHT22;1295;51.130;6.732;2024-03-08T08:39:29;7.90;99.90
2571;DHT22;1295;51.130;6.732;2024-03-08T08:41:55;8.20;99.90
2571;DHT22;1295;51.130;6.732;2024-03-08T08:44:21;8.10;99.90
2571;DHT22;1295;51.130;6.732;2024-03-08T08:46:46;8.40;99.90
2571;DHT22;1295;51.130;6.732;2024-03-08T08:49:12;8.20;99.90
2571;DHT22;1295;51.130;6.732;2024-03-08T08:51:37;8.40;99.90
2571;DHT22;1295;51.130;6.732;2024-03-08T08:54:03;8.40;99.90
2571;DHT22;1295;51.130;6.732;2024-03-08T08:56:29;8.50;99.90
2571;DHT22;1295;51.130;6.732;2024-03-08T08:58:54;8.70;99.90
2571;DHT22;1295;51.130;6.732;2024-03-08T09:01:20;8.90;99.90
2571;DHT22;1295;51.130;6.732;2024-03-08T09:03:46;8.90;99.90
2571;DHT22;1295;51.130;6.732;2024-03-08T09:06:12;8.90;99.90
2571;DHT22;1295;51.130;6.732;2024-03-08T09:08:38;8.80;99.90
2571;DHT22;1295;51.130;6.732;2024-03-08T09:11:03;9.00;99.90
2571;DHT22;1295;51.130;6.732;2024-03-08T09:13:29;9.10;99.90
2571;DHT22;1295;51.130;6.732;2024-03-08T09:15:54;9.20;99.90
2571;DHT22;1295;51.130;6.732;2024-03-08T09:18:21;9.20;99.90
2571;DHT22;1295;51.130;6.732;2024-03-08T09:20:47;9.00;99.90
2571;DHT22;1295;51.130;6.732;2024-03-08T09:23:13;9.00;99.90
2571;DHT22;1295;51.130;6.732;2024-03-08T09:25:38;9.20;99.90
2571;DHT22;1295;51.130;6.732;2024-03-08T09:28:05;9.50;99.90
2571;DHT22;1295;51.130;6.732;2024-03-08T09:30:30;9.50;99.90
2571;DHT22;1295;51.130;6.732;2024-03-08T09:32:56;9.60;99.90
2571;DHT22;1295;51.130;6.732;2024-03-08T09:35:22;9.30;99.90
2571;DHT22;1295;51.130;6.732;2024-03-08T09:37:47;9.20;99.90
2571;DHT22;1295;51.130;6.732;2024-03-08T09:40:14;10.10;99.90
2571;DHT22;1295;51.130;6.732;2024-03-08T09:42:40;10.10;99.90
2571;DHT22;1295;51.130;6.732;2024-03-08T09:45:09;9.80;99.90
2571;DHT22;1295;51.130;6.732;2024-03-08T09:47:34;9.80;99.90
2571;DHT22;1295;51.130;6.732;2024-03-08T09:49:59;9.70;99.90
2571;DHT22;1295;51.130;6.732;2024-03-08T09:52:25;9.80;99.90
2571;DHT22;1295;51.130;6.732;2024-03-08T09:54:50;9.60;99.90
2571;DHT22;1295;51.130;6.732;2024-03-08T09:57:16;9.60;99.90
2571;DHT22;1295;51.130;6.732;2024-03-08T09:59:42;10.40;99.90
2571;DHT22;1295;51.130;6.732;2024-03-08T10:02:09;10.30;99.90
2571;DHT22;1295;51.130;6.732;2024-03-08T10:04:33;10.20;99.90
2571;DHT22;1295;51.130;6.732;2024-03-08T10:06:59;10.60;99.90
2571;DHT22;1295;51.130;6.732;2024-03-08T10:09:25;10.10;99.90
2571;DHT22;1295;51.130;6.732;2024-03-08T10:11:50;9.90;99.90
2571;DHT22;1295;51.130;6.732;2024-03-08T10:14:15;9.80;99.90
2571;DHT22;1295;51.130;6.732;2024-03-08T10:16:41;10.10;99.90
2571;DHT22;1295;51.130;6.732;2024-03-08T10:19:07;10.00;99.90
2571;DHT22;1295;51.130;6.732;2024-03-08T10:21:32;10.40;99.90
2571;DHT22;1295;51.130;6.732;2024-03-08T10:23:58;10.60;99.90
2571;DHT22;1295;51.130;6.732;2024-03-08T10:26:24;10.60;99.90
2571;DHT22;1295;51.130;6.732;2024-03-08T10:28:51;11.00;99.90
2571;DHT22;1295;51.130;6.732;2024-03-08T10:31:15;10.70;99.90
2571;DHT22;1295;51.130;6.732;2024-03-08T10:33:41;10.60;99.90
2571;DHT22;1295;51.130;6.732;2024-03-08T10:36:07;10.60;99.90
2571;DHT22;1295;51.130;6.732;2024-03-08T10:38:32;11.00;99.90
2571;DHT22;1295;51.130;6.732;2024-03-08T10:40:58;10.90;99.90
2571;DHT22;1295;51.130;6.732;2024-03-08T10:43:24;10.80;99.90
2571;DHT22;1295;51.130;6.732;2024-03-08T10:45:49;11.20;99.90
2571;DHT22;1295;51.130;6.732;2024-03-08T10:48:27;11.20;99.90
2571;DHT22;1295;51.130;6.732;2024-03-08T10:50:50;11.10;99.90
2571;DHT22;1295;51.130;6.732;2024-03-08T10:53:18;10.60;99.90
2571;DHT22;1295;51.130;6.732;2024-03-08T10:55:43;10.60;99.90
2571;DHT22;1295;51.130;6.732;2024-03-08T10:58:09;11.00;99.90
2571;DHT22;1295;51.130;6.732;2024-03-08T11:00:35;10.90;99.90
2571;DHT22;1295;51.130;6.732;2024-03-08T11:03:00;11.10;99.90
2571;DHT22;1295;51.130;6.732;2024-03-08T11:05:36;11.20;99.90
2571;DHT22;1295;51.130;6.732;2024-03-08T11:07:58;10.90;99.90
2571;DHT22;1295;51.130;6.732;2024-03-08T11:10:24;11.40;99.90
2571;DHT22;1295;51.130;6.732;2024-03-08T11:12:50;11.40;99.90
2571;DHT22;1295;51.130;6.732;2024-03-08T11:15:15;11.30;99.90
2571;DHT22;1295;51.130;6.732;2024-03-08T11:17:44;11.50;99.90
2571;DHT22;1295;51.130;6.732;2024-03-08T11:20:11;11.40;99.90
2571;DHT22;1295;51.130;6.732;2024-03-08T11:22:37;11.10;99.90
2571;DHT22;1295;51.130;6.732;2024-03-08T11:25:05;11.10;99.90
2571;DHT22;1295;51.130;6.732;2024-03-08T11:27:33;11.20;99.90
2571;DHT22;1295;51.130;6.732;2024-03-08T11:30:02;11.00;99.90
2571;DHT22;1295;51.130;6.732;2024-03-08T11:32:27;11.00;99.90
2571;DHT22;1295;51.130;6.732;2024-03-08T11:34:53;11.20;99.90
2571;DHT22;1295;51.130;6.732;2024-03-08T11:37:19;11.70;99.90
2571;DHT22;1295;51.130;6.732;2024-03-08T11:39:48;11.40;99.90
2571;DHT22;1295;51.130;6.732;2024-03-08T11:42:13;12.20;99.90
2571;DHT22;1295;51.130;6.732;2024-03-08T11:44:39;12.10;99.90
2571;DHT22;1295;51.130;6.732;2024-03-08T11:47:08;12.20;99.90
2571;DHT22;1295;51.130;6.732;2024-03-08T11:49:34;11.80;99.90
2571;DHT22;1295;51.130;6.732;2024-03-08T11:51:59;11.80;99.90
2571;DHT22;1295;51.130;6.732;2024-03-08T11:54:25;12.00;99.90
2571;DHT22;1295;51.130;6.732;2024-03-08T11:56:51;12.10;99.90
2571;DHT22;1295;51.130;6.732;2024-03-08T11:59:16;12.00;99.90
2571;DHT22;1295;51.130;6.732;2024-03-08T12:01:42;12.00;99.90
2571;DHT22;1295;51.130;6.732;2024-03-08T12:04:11;12.20;99.90
2571;DHT22;1295;51.130;6.732;2024-03-08T12:06:36;12.00;99.90
2571;DHT22;1295;51.130;6.732;2024-03-08T12:09:02;12.00;99.90
2571;DHT22;1295;51.130;6.732;2024-03-08T12:11:28;12.00;99.90
2571;DHT22;1295;51.130;6.732;2024-03-08T12:13:53;11.60;99.90
2571;DHT22;1295;51.130;6.732;2024-03-08T12:16:19;11.70;99.90
2571;DHT22;1295;51.130;6.732;2024-03-08T12:18:45;12.60;99.90
2571;DHT22;1295;51.130;6.732;2024-03-08T12:21:11;12.50;99.90
2571;DHT22;1295;51.130;6.732;2024-03-08T12:23:37;12.70;99.90
2571;DHT22;1295;51.130;6.732;2024-03-08T12:26:14;12.50;99.90
2571;DHT22;1295;51.130;6.732;2024-03-08T12:28:40;12.20;99.90
2571;DHT22;1295;51.130;6.732;2024-03-08T12:31:07;12.10;99.90
2571;DHT22;1295;51.130;6.732;2024-03-08T12:33:31;12.70;99.90
2571;DHT22;1295;51.130;6.732;2024-03-08T12:35:57;12.40;99.90
2571;DHT22;1295;51.130;6.732;2024-03-08T12:38:22;12.60;99.90
2571;DHT22;1295;51.130;6.732;2024-03-08T12:40:51;12.20;99.90
2571;DHT22;1295;51.130;6.732;2024-03-08T12:43:16;12.20;99.90
2571;DHT22;1295;51.130;6.732;2024-03-08T12:45:43;12.30;99.90
2571;DHT22;1295;51.130;6.732;2024-03-08T12:48:12;12.30;99.90
2571;DHT22;1295;51.130;6.732;2024-03-08T12:50:38;12.10;99.90
2571;DHT22;1295;51.130;6.732;2024-03-08T12:53:03;12.10;99.90
2571;DHT22;1295;51.130;6.732;2024-03-08T12:55:29;12.30;99.90
2571;DHT22;1295;51.130;6.732;2024-03-08T12:57:55;12.10;99.90
2571;DHT22;1295;51.130;6.732;2024-03-08T13:00:20;12.10;99.90
2571;DHT22;1295;51.130;6.732;2024-03-08T13:02:47;12.30;99.90
2571;DHT22;1295;51.130;6.732;2024-03-08T13:05:12;12.30;99.90
2571;DHT22;1295;51.130;6.732;2024-03-08T13:07:38;12.80;99.90
2571;DHT22;1295;51.130;6.732;2024-03-08T13:10:06;12.70;99.90
2571;DHT22;1295;51.130;6.732;2024-03-08T13:12:31;12.60;99.90
2571;DHT22;1295;51.130;6.732;2024-03-08T13:14:57;12.10;99.90
2571;DHT22;1295;51.130;6.732;2024-03-08T13:17:23;12.00;99.90
2571;DHT22;1295;51.130;6.732;2024-03-08T13:19:48;12.20;99.90
2571;DHT22;1295;51.130;6.732;2024-03-08T13:22:14;12.00;99.90
2571;DHT22;1295;51.130;6.732;2024-03-08T13:24:40;11.80;99.90
2571;DHT22;1295;51.130;6.732;2024-03-08T13:27:07;12.40;99.90
2571;DHT22;1295;51.130;6.732;2024-03-08T13:29:33;12.20;99.90
2571;DHT22;1295;51.130;6.732;2024-03-08T13:31:58;12.10;99.90
2571;DHT22;1295;51.130;6.732;2024-03-08T13:34:24;12.00;99.90
2571;DHT22;1295;51.130;6.732;2024-03-08T13:36:54;12.30;99.90
2571;DHT22;1295;51.130;6.732;2024-03-08T13:39:20;12.30;99.90
2571;DHT22;1295;51.130;6.732;2024-03-08T13:41:46;12.20;99.90
2571;DHT22;1295;51.130;6.732;2024-03-08T13:44:11;12.20;99.90
2571;DHT22;1295;51.130;6.732;2024-03-08T13:46:37;12.20;99.90
2571;DHT22;1295;51.130;6.732;2024-03-08T13:49:03;12.20;99.90
2571;DHT22;1295;51.130;6.732;2024-03-08T13:51:28;12.00;99.90
2571;DHT22;1295;51.130;6.732;2024-03-08T13:53:54;12.00;99.90
2571;DHT22;1295;51.130;6.732;2024-03-08T13:56:21;12.10;99.90
2571;DHT22;1295;51.130;6.732;2024-03-08T13:58:46;12.10;99.90
2571;DHT22;1295;51.130;6.732;2024-03-08T14:01:13;12.20;99.90
2571;DHT22;1295;51.130;6.732;2024-03-08T14:03:38;12.20;99.90
2571;DHT22;1295;51.130;6.732;2024-03-08T14:06:04;12.10;99.90
2571;DHT22;1295;51.130;6.732;2024-03-08T14:08:31;12.20;99.90
2571;DHT22;1295;51.130;6.732;2024-03-08T14:10:56;12.20;99.90
2571;DHT22;1295;51.130;6.732;2024-03-08T14:13:22;12.40;99.90
2571;DHT22;1295;51.130;6.732;2024-03-08T14:15:47;12.40;99.90
2571;DHT22;1295;51.130;6.732;2024-03-08T14:18:13;12.40;99.90
2571;DHT22;1295;51.130;6.732;2024-03-08T14:20:39;12.30;99.90
2571;DHT22;1295;51.130;6.732;2024-03-08T14:23:04;12.20;99.90
2571;DHT22;1295;51.130;6.732;2024-03-08T14:25:30;12.40;99.90
2571;DHT22;1295;51.130;6.732;2024-03-08T14:27:56;12.10;99.90
2571;DHT22;1295;51.130;6.732;2024-03-08T14:30:23;12.10;99.90
2571;DHT22;1295;51.130;6.732;2024-03-08T14:32:54;12.20;99.90
2571;DHT22;1295;51.130;6.732;2024-03-08T14:35:20;12.30;99.90
2571;DHT22;1295;51.130;6.732;2024-03-08T14:37:46;12.10;99.90
2571;DHT22;1295;51.130;6.732;2024-03-08T14:40:11;12.20;99.90
2571;DHT22;1295;51.130;6.732;2024-03-08T14:42:37;12.00;99.90
2571;DHT22;1295;51.130;6.732;2024-03-08T14:45:03;12.20;99.90
2571;DHT22;1295;51.130;6.732;2024-03-08T14:47:29;12.20;99.90
2571;DHT22;1295;51.130;6.732;2024-03-08T14:49:56;11.90;99.90
2571;DHT22;1295;51.130;6.732;2024-03-08T14:52:21;11.80;99.90
2571;DHT22;1295;51.130;6.732;2024-03-08T14:54:55;12.00;99.90
2571;DHT22;1295;51.130;6.732;2024-03-08T14:57:21;11.90;99.90
2571;DHT22;1295;51.130;6.732;2024-03-08T14:59:47;11.70;99.90
2571;DHT22;1295;51.130;6.732;2024-03-08T15:02:13;11.70;99.90
2571;DHT22;1295;51.130;6.732;2024-03-08T15:04:39;11.80;99.90
2571;DHT22;1295;51.130;6.732;2024-03-08T15:07:04;11.90;99.90
2571;DHT22;1295;51.130;6.732;2024-03-08T15:09:30;11.90;99.90
2571;DHT22;1295;51.130;6.732;2024-03-08T15:11:55;11.80;99.90
2571;DHT22;1295;51.130;6.732;2024-03-08T15:14:21;11.80;99.90
2571;DHT22;1295;51.130;6.732;2024-03-08T15:16:47;11.80;99.90
2571;DHT22;1295;51.130;6.732;2024-03-08T15:19:12;11.70;99.90
2571;DHT22;1295;51.130;6.732;2024-03-08T15:21:39;11.80;99.90
2571;DHT22;1295;51.130;6.732;2024-03-08T15:24:04;11.80;99.90
2571;DHT22;1295;51.130;6.732;2024-03-08T15:26:30;11.80;99.90
2571;DHT22;1295;51.130;6.732;2024-03-08T15:28:56;11.80;99.90
2571;DHT22;1295;51.130;6.732;2024-03-08T15:31:22;11.80;99.90
2571;DHT22;1295;51.130;6.732;2024-03-08T15:33:47;11.80;99.90
2571;DHT22;1295;51.130;6.732;2024-03-08T15:36:15;11.60;99.90
2571;DHT22;1295;51.130;6.732;2024-03-08T15:38:39;11.60;99.90
2571;DHT22;1295;51.130;6.732;2024-03-08T15:41:06;11.60;99.90
2571;DHT22;1295;51.130;6.732;2024-03-08T15:43:32;11.60;99.90
2571;DHT22;1295;51.130;6.732;2024-03-08T15:45:58;11.70;99.90
2571;DHT22;1295;51.130;6.732;2024-03-08T15:48:25;11.60;99.90
2571;DHT22;1295;51.130;6.732;2024-03-08T15:50:50;11.60;99.90
2571;DHT22;1295;51.130;6.732;2024-03-08T15:53:16;11.50;99.90
2571;DHT22;1295;51.130;6.732;2024-03-08T15:55:42;11.50;99.90
2571;DHT22;1295;51.130;6.732;2024-03-08T15:58:07;11.60;99.90
2571;DHT22;1295;51.130;6.732;2024-03-08T16:00:33;11.70;99.90
2571;DHT22;1295;51.130;6.732;2024-03-08T16:03:00;11.60;99.90